createdAt,value
2023-05-11T00:00:16.567Z,15.31
2023-05-11T00:02:47.032Z,15.35
2023-05-11T00:05:15.729Z,15.33
2023-05-11T00:07:44.008Z,15.25
2023-05-11T00:10:12.866Z,15.15
2023-05-11T00:12:42.325Z,15.10
2023-05-11T00:15:11.527Z,15.08
2023-05-11T00:17:39.929Z,15.09
2023-05-11T00:20:11.089Z,15.11
2023-05-11T00:22:39.487Z,15.10
2023-05-11T00:25:08.739Z,15.11
2023-05-11T00:27:37.084Z,15.12
2023-05-11T00:30:06.091Z,15.10
2023-05-11T00:32:35.654Z,15.03
2023-05-11T00:35:04.091Z,15.02
2023-05-11T00:37:35.144Z,15.00
2023-05-11T00:40:04.276Z,14.91
2023-05-11T00:42:32.845Z,14.80
2023-05-11T00:45:01.314Z,14.66
2023-05-11T00:47:30.153Z,14.64
2023-05-11T00:49:59.508Z,14.54
2023-05-11T00:52:28.281Z,14.44
2023-05-11T00:54:58.382Z,14.35
2023-05-11T00:57:26.814Z,14.21
2023-05-11T00:59:55.400Z,14.15
2023-05-11T01:02:29.878Z,14.11
2023-05-11T01:05:08.322Z,14.00
2023-05-11T01:07:53.153Z,13.94
2023-05-11T01:10:38.579Z,13.93
2023-05-11T01:13:24.005Z,13.87
2023-05-11T01:16:01.291Z,13.76
2023-05-11T01:18:43.055Z,13.68
2023-05-11T01:21:22.493Z,13.61
2023-05-11T01:24:32.479Z,13.54
2023-05-11T01:27:37.219Z,13.54
2023-05-11T01:30:34.790Z,13.33
2023-05-11T01:33:13.456Z,13.55
2023-05-11T01:35:55.677Z,13.56
2023-05-11T01:38:38.454Z,13.60
2023-05-11T01:41:21.660Z,13.64
2023-05-11T01:44:00.786Z,13.20
2023-05-11T01:46:42.314Z,13.59
2023-05-11T01:49:20.668Z,13.51
2023-05-11T01:51:59.828Z,13.36
2023-05-11T01:54:38.120Z,13.39
2023-05-11T01:57:19.207Z,13.35
2023-05-11T01:59:59.230Z,13.30
2023-05-11T02:02:40.931Z,13.15
2023-05-11T02:05:23.765Z,12.94
2023-05-11T02:08:04.962Z,12.86
2023-05-11T02:10:42.093Z,12.82
2023-05-11T02:13:21.421Z,12.81
2023-05-11T02:16:01.358Z,12.82
2023-05-11T02:18:45.947Z,12.84
2023-05-11T02:21:22.397Z,12.77
2023-05-11T02:24:01.309Z,12.79
2023-05-11T02:26:37.632Z,12.69
2023-05-11T02:29:15.688Z,12.54
2023-05-11T02:31:59.779Z,12.50
2023-05-11T02:34:46.142Z,12.42
2023-05-11T02:37:29.192Z,12.39
2023-05-11T02:40:02.474Z,12.32
2023-05-11T02:42:38.289Z,12.34
2023-05-11T02:45:10.326Z,12.36
2023-05-11T02:47:43.723Z,12.37
2023-05-11T02:50:19.616Z,12.35
2023-05-11T02:52:50.801Z,12.25
2023-05-11T02:55:21.475Z,12.05
2023-05-11T02:57:50.547Z,12.02
2023-05-11T03:00:19.568Z,11.91
2023-05-11T03:02:48.859Z,11.65
2023-05-11T03:05:24.393Z,11.76
2023-05-11T03:07:53.874Z,11.68
2023-05-11T03:10:22.871Z,11.67
2023-05-11T03:12:51.846Z,11.76
2023-05-11T03:15:22.123Z,11.76
2023-05-11T03:17:53.626Z,11.65
2023-05-11T03:20:24.390Z,11.76
2023-05-11T03:22:53.983Z,11.71
2023-05-11T03:25:24.744Z,11.70
2023-05-11T03:27:56.239Z,11.47
2023-05-11T03:30:25.448Z,11.77
2023-05-11T03:32:56.996Z,11.72
2023-05-11T03:35:28.940Z,11.72
2023-05-11T03:38:00.886Z,11.71
2023-05-11T03:40:31.710Z,11.61
2023-05-11T03:43:04.238Z,11.49
2023-05-11T03:45:34.373Z,11.35
2023-05-11T03:48:07.164Z,11.33
2023-05-11T03:50:39.339Z,11.41
2023-05-11T03:53:09.147Z,11.35
2023-05-11T03:55:38.630Z,11.39
2023-05-11T03:58:08.945Z,11.41
2023-05-11T04:00:40.767Z,11.30
2023-05-11T04:03:10.202Z,11.20
2023-05-11T04:05:42.167Z,11.13
2023-05-11T04:08:14.653Z,10.99
2023-05-11T04:10:43.272Z,10.90
2023-05-11T04:13:11.628Z,10.88
2023-05-11T04:15:40.042Z,10.86
2023-05-11T04:18:08.429Z,10.84
2023-05-11T04:20:36.914Z,10.89
2023-05-11T04:23:08.426Z,10.89
2023-05-11T04:25:38.696Z,10.80
2023-05-11T04:28:07.426Z,10.69
2023-05-11T04:30:36.557Z,10.59
2023-05-11T04:33:05.501Z,10.49
2023-05-11T04:35:34.017Z,10.39
2023-05-11T04:38:03.758Z,10.28
2023-05-11T04:40:37.604Z,10.28
2023-05-11T04:43:06.046Z,10.21
2023-05-11T04:45:34.370Z,10.16
2023-05-11T04:48:03.736Z,10.15
2023-05-11T04:50:32.163Z,10.18
2023-05-11T04:53:00.877Z,10.19
2023-05-11T04:55:29.417Z,10.22
2023-05-11T04:57:59.835Z,10.27
2023-05-11T05:00:28.317Z,10.30
2023-05-11T05:02:56.777Z,10.34
2023-05-11T05:05:26.241Z,10.39
2023-05-11T05:07:54.656Z,10.91
2023-05-11T05:10:24.416Z,10.91
2023-05-11T05:12:52.777Z,10.97
2023-05-11T05:15:23.400Z,10.97
2023-05-11T05:17:51.899Z,10.97
2023-05-11T05:20:20.651Z,11.01
2023-05-11T05:22:49.216Z,11.06
2023-05-11T05:25:17.802Z,11.12
2023-05-11T05:27:46.275Z,11.19
2023-05-11T05:30:19.969Z,11.27
2023-05-11T05:32:51.438Z,11.40
2023-05-11T05:35:19.942Z,11.52
2023-05-11T05:37:48.389Z,11.67
2023-05-11T05:40:17.951Z,11.83
2023-05-11T05:42:49.577Z,12.04
2023-05-11T05:45:22.051Z,12.29
2023-05-11T05:47:52.851Z,12.53
2023-05-11T05:50:22.568Z,12.74
2023-05-11T05:52:50.895Z,12.94
2023-05-11T05:55:19.564Z,13.13
2023-05-11T05:57:50.182Z,13.33
2023-05-11T06:00:19.489Z,13.55
2023-05-11T06:02:57.665Z,13.84
2023-05-11T06:05:28.473Z,14.24
2023-05-11T06:08:09.007Z,14.69
2023-05-11T06:10:39.348Z,15.19
2023-05-11T06:13:09.394Z,15.71
2023-05-11T06:15:41.173Z,16.27
2023-05-11T06:18:24.019Z,17.02
2023-05-11T06:20:52.956Z,17.68
2023-05-11T06:23:21.330Z,18.20
2023-05-11T06:25:50.527Z,18.77
2023-05-11T06:28:19.091Z,19.12
2023-05-11T06:30:47.936Z,19.38
2023-05-11T06:33:16.361Z,19.73
2023-05-11T06:35:46.259Z,20.13
2023-05-11T06:38:16.212Z,20.39
2023-05-11T06:40:44.850Z,20.73
2023-05-11T06:43:13.301Z,20.86
2023-05-11T06:45:51.563Z,21.19
2023-05-11T06:48:20.163Z,21.46
2023-05-11T06:50:50.405Z,21.72
2023-05-11T06:53:19.127Z,22.05
2023-05-11T06:55:47.559Z,22.15
2023-05-11T06:58:17.248Z,22.44
2023-05-11T07:00:45.807Z,22.71
2023-05-11T07:03:14.395Z,22.88
2023-05-11T07:05:42.862Z,23.12
2023-05-11T07:08:12.797Z,23.38
2023-05-11T07:10:41.806Z,23.55
2023-05-11T07:13:10.165Z,23.76
2023-05-11T07:15:38.601Z,23.80
2023-05-11T07:18:07.158Z,23.86
2023-05-11T07:20:36.690Z,23.94
2023-05-11T07:23:05.061Z,23.71
2023-05-11T07:25:35.131Z,23.36
2023-05-11T07:28:03.709Z,23.08
2023-05-11T07:30:32.153Z,22.68
2023-05-11T07:33:00.581Z,22.50
2023-05-11T07:35:29.173Z,22.57
2023-05-11T07:37:57.605Z,22.69
2023-05-11T07:40:26.188Z,22.99
2023-05-11T07:42:56.112Z,23.29
2023-05-11T07:45:24.528Z,23.38
2023-05-11T07:47:53.107Z,23.31
2023-05-11T07:50:23.884Z,23.42
2023-05-11T07:52:52.975Z,23.16
2023-05-11T07:55:25.566Z,22.95
2023-05-11T07:57:57.288Z,22.90
2023-05-11T08:00:26.178Z,22.29
2023-05-11T08:02:55.706Z,21.87
2023-05-11T08:05:24.783Z,21.93
2023-05-11T08:07:53.153Z,21.88
2023-05-11T08:10:21.666Z,21.72
2023-05-11T08:12:50.158Z,21.52
2023-05-11T08:15:20.295Z,21.28
2023-05-11T08:17:48.960Z,21.08
2023-05-11T08:20:17.530Z,20.84
2023-05-11T08:22:47.054Z,20.67
2023-05-11T08:25:16.540Z,20.57
2023-05-11T08:27:45.161Z,20.55
2023-05-11T08:30:14.309Z,20.40
2023-05-11T08:35:17.192Z,20.25
2023-05-11T08:37:45.873Z,20.35
2023-05-11T08:40:15.145Z,20.23
2023-05-11T08:42:47.633Z,20.25
2023-05-11T08:45:18.032Z,20.14
2023-05-11T08:47:49.274Z,20.15
2023-05-11T08:50:18.154Z,20.09
2023-05-11T08:52:46.583Z,19.90
2023-05-11T08:55:15.071Z,19.75
2023-05-11T08:57:46.808Z,19.61
2023-05-11T09:00:16.955Z,19.59
2023-05-11T09:02:46.017Z,19.49
2023-05-11T09:05:16.477Z,19.42
2023-05-11T09:07:48.442Z,19.42
2023-05-11T09:10:17.552Z,19.44
2023-05-11T09:12:46.223Z,19.44
2023-05-11T09:15:15.721Z,19.45
2023-05-11T09:17:44.132Z,19.55
2023-05-11T09:20:13.341Z,19.53
2023-05-11T09:22:48.038Z,19.54
2023-05-11T09:25:18.392Z,19.72
2023-05-11T09:27:48.117Z,19.84
2023-05-11T09:32:54.676Z,20.08
2023-05-11T09:35:24.408Z,20.02
2023-05-11T09:38:02.470Z,20.00
2023-05-11T09:40:34.079Z,20.00
2023-05-11T09:43:03.765Z,20.05
2023-05-11T09:45:40.242Z,20.15
2023-05-11T09:48:14.342Z,19.99
2023-05-11T09:50:43.007Z,20.13
2023-05-11T09:53:13.771Z,20.11
2023-05-11T09:55:53.162Z,20.22
2023-05-11T09:58:22.167Z,20.37
2023-05-11T10:00:52.416Z,20.34
2023-05-11T10:03:21.853Z,20.35
2023-05-11T10:05:58.577Z,20.22
2023-05-11T10:08:31.467Z,20.25
2023-05-11T10:11:00.031Z,20.27
2023-05-11T10:13:29.136Z,20.18
2023-05-11T10:16:00.580Z,20.11
2023-05-11T10:18:29.067Z,20.17
2023-05-11T10:20:58.960Z,20.42
2023-05-11T10:23:27.760Z,20.75
2023-05-11T10:25:58.617Z,20.94
2023-05-11T10:28:27.084Z,21.47
2023-05-11T10:30:56.303Z,21.82
2023-05-11T10:33:25.334Z,22.01
2023-05-11T10:35:54.535Z,22.16
2023-05-11T10:38:23.924Z,22.19
2023-05-11T10:40:53.676Z,22.16
2023-05-11T10:43:53.425Z,22.22
2023-05-11T10:46:38.673Z,22.32
2023-05-11T10:49:23.535Z,22.43
2023-05-11T10:52:07.462Z,22.48
2023-05-11T10:54:50.388Z,22.51
2023-05-11T10:57:37.649Z,22.21
2023-05-11T11:00:50.257Z,22.10
2023-05-11T11:03:18.983Z,21.81
2023-05-11T11:05:48.336Z,21.68
2023-05-11T11:08:16.801Z,21.63
2023-05-11T11:10:46.820Z,21.69
2023-05-11T11:13:16.951Z,21.84
2023-05-11T11:16:19.104Z,21.78
2023-05-11T11:18:47.741Z,21.82
2023-05-11T11:21:42.884Z,22.07
2023-05-11T11:24:47.364Z,22.21
2023-05-11T11:27:16.364Z,22.43
2023-05-11T11:30:18.486Z,22.48
2023-05-11T11:32:49.334Z,22.46
2023-05-11T11:35:49.152Z,22.48
2023-05-11T11:38:20.088Z,22.49
2023-05-11T11:40:52.990Z,22.66
2023-05-11T11:43:23.730Z,22.80
2023-05-11T11:45:53.775Z,22.94
2023-05-11T11:48:31.232Z,22.99
2023-05-11T11:51:04.673Z,22.77
2023-05-11T11:54:00.903Z,22.89
2023-05-11T11:56:43.809Z,22.88
2023-05-11T11:59:15.388Z,22.89
2023-05-11T12:01:46.016Z,23.02
2023-05-11T12:04:39.647Z,22.94
2023-05-11T12:07:11.497Z,23.13
2023-05-11T12:09:42.224Z,23.19
2023-05-11T12:12:11.964Z,23.15
2023-05-11T12:14:44.838Z,23.25
2023-05-11T12:17:16.598Z,23.24
2023-05-11T12:19:47.153Z,23.15
2023-05-11T12:22:16.774Z,23.13
2023-05-11T12:24:45.788Z,23.09
2023-05-11T12:27:14.848Z,23.12
2023-05-11T12:29:46.054Z,23.07
2023-05-11T12:32:15.249Z,22.99
2023-05-11T12:34:43.734Z,22.99
2023-05-11T12:37:13.703Z,23.09
2023-05-11T12:39:42.677Z,23.22
2023-05-11T12:42:20.181Z,23.32
2023-05-11T12:44:48.915Z,23.34
2023-05-11T12:47:17.892Z,23.38
2023-05-11T12:49:46.578Z,23.39
2023-05-11T12:52:16.466Z,23.46
2023-05-11T12:54:51.591Z,23.59
2023-05-11T12:57:27.599Z,23.69
2023-05-11T13:00:11.813Z,23.68
2023-05-11T13:02:50.318Z,23.54
2023-05-11T13:05:21.004Z,23.38
2023-05-11T13:07:59.093Z,23.60
2023-05-11T13:10:28.100Z,23.61
2023-05-11T13:12:57.221Z,23.71
2023-05-11T13:15:28.747Z,23.65
2023-05-11T13:17:59.309Z,23.70
2023-05-11T13:20:29.812Z,23.64
2023-05-11T13:23:07.371Z,23.74
2023-05-11T13:25:36.814Z,23.69
2023-05-11T13:28:05.667Z,23.72
2023-05-11T13:30:35.073Z,23.69
2023-05-11T13:33:04.478Z,23.72
2023-05-11T13:35:32.894Z,23.74
2023-05-11T13:38:02.322Z,23.71
2023-05-11T13:40:32.354Z,23.77
2023-05-11T13:43:01.423Z,23.73
2023-05-11T13:45:29.952Z,23.77
2023-05-11T13:47:58.463Z,23.86
2023-05-11T13:50:27.530Z,24.01
2023-05-11T13:52:55.944Z,24.09
2023-05-11T13:55:24.574Z,24.05
2023-05-11T13:57:54.549Z,24.10
2023-05-11T14:00:23.535Z,24.05
2023-05-11T14:02:53.010Z,23.75
2023-05-11T14:05:23.631Z,23.56
2023-05-11T14:07:51.966Z,23.33
2023-05-11T14:10:21.104Z,23.59
2023-05-11T14:12:49.501Z,23.62
2023-05-11T14:15:19.705Z,23.70
2023-05-11T14:17:48.924Z,23.77
2023-05-11T14:20:17.698Z,23.83
2023-05-11T14:22:46.242Z,23.85
2023-05-11T14:25:14.915Z,23.82
2023-05-11T14:27:44.036Z,23.60
2023-05-11T14:30:13.020Z,23.55
2023-05-11T14:32:42.999Z,23.61
2023-05-11T14:35:11.830Z,23.79
2023-05-11T14:37:40.494Z,23.91
2023-05-11T14:40:09.981Z,23.97
2023-05-11T14:42:38.580Z,23.97
2023-05-11T14:45:07.935Z,23.86
2023-05-11T14:47:37.006Z,23.93
2023-05-11T14:50:08.135Z,23.98
2023-05-11T14:52:36.604Z,23.96
2023-05-11T14:55:05.387Z,23.93
2023-05-11T14:57:33.843Z,23.80
2023-05-11T15:00:02.332Z,23.62
2023-05-11T15:02:30.899Z,23.40
2023-05-11T15:04:59.361Z,23.16
2023-05-11T15:07:29.279Z,22.94
2023-05-11T15:09:57.675Z,22.61
2023-05-11T15:12:26.062Z,22.52
2023-05-11T15:14:54.600Z,22.63
2023-05-11T15:17:23.103Z,22.75
2023-05-11T15:19:52.033Z,22.90
2023-05-11T15:22:20.430Z,23.02
2023-05-11T15:24:50.248Z,23.14
2023-05-11T15:27:19.151Z,23.26
2023-05-11T15:29:47.524Z,23.32
2023-05-11T15:32:17.767Z,23.45
2023-05-11T15:34:58.579Z,23.51
2023-05-11T15:37:28.940Z,23.53
2023-05-11T15:39:58.642Z,23.61
2023-05-11T15:42:27.102Z,23.61
2023-05-11T15:44:55.468Z,23.52
2023-05-11T15:47:24.154Z,23.50
2023-05-11T15:49:52.808Z,23.53
2023-05-11T15:52:21.588Z,23.53
2023-05-11T15:54:50.001Z,23.27
2023-05-11T15:57:20.033Z,23.20
2023-05-11T15:59:48.825Z,23.18
2023-05-11T16:02:18.002Z,23.19
2023-05-11T16:04:46.450Z,23.19
2023-05-11T16:07:14.859Z,23.26
2023-05-11T16:09:43.335Z,23.31
2023-05-11T16:12:11.774Z,23.41
2023-05-11T16:14:41.576Z,23.49
2023-05-11T16:17:10.167Z,23.39
2023-05-11T16:19:38.829Z,23.21
2023-05-11T16:22:07.664Z,23.12
2023-05-11T16:24:36.086Z,23.06
2023-05-11T16:27:04.685Z,23.00
2023-05-11T16:29:33.050Z,22.96
2023-05-11T16:32:03.099Z,22.93
2023-05-11T16:34:31.950Z,22.79
2023-05-11T16:37:00.306Z,22.62
2023-05-11T16:39:28.733Z,22.54
2023-05-11T16:41:57.246Z,22.48
2023-05-11T16:44:25.921Z,22.43
2023-05-11T16:46:54.433Z,22.40
2023-05-11T16:49:24.691Z,22.26
2023-05-11T16:51:53.431Z,22.25
2023-05-11T16:54:21.869Z,22.23
2023-05-11T16:56:50.363Z,22.25
2023-05-11T16:59:18.801Z,22.34
2023-05-11T17:01:47.585Z,22.36
2023-05-11T17:04:16.672Z,22.33
2023-05-11T17:06:46.659Z,22.31
2023-05-11T17:09:15.097Z,22.34
2023-05-11T17:11:43.542Z,22.35
2023-05-11T17:14:11.938Z,22.39
2023-05-11T17:16:40.439Z,22.36
2023-05-11T17:19:10.276Z,22.21
2023-05-11T17:21:39.756Z,22.05
2023-05-11T17:24:09.794Z,22.02
2023-05-11T17:26:47.095Z,21.97
2023-05-11T17:29:17.301Z,21.86
2023-05-11T17:31:48.797Z,21.79
2023-05-11T17:34:18.044Z,21.62
2023-05-11T17:36:46.561Z,21.47
2023-05-11T17:39:17.221Z,21.38
2023-05-11T17:41:45.752Z,21.28
2023-05-11T17:44:14.625Z,21.15
2023-05-11T17:46:43.307Z,21.03
2023-05-11T17:49:11.752Z,20.93
2023-05-11T17:51:40.286Z,20.84
2023-05-11T17:54:08.996Z,20.80
2023-05-11T17:56:39.509Z,20.78
2023-05-11T17:59:08.222Z,20.70
2023-05-11T18:01:37.684Z,20.65
2023-05-11T18:04:06.532Z,20.61
2023-05-11T18:06:34.978Z,20.55
2023-05-11T18:09:05.076Z,20.47
2023-05-11T18:11:34.891Z,20.40
2023-05-11T18:14:04.741Z,20.40
2023-05-11T18:16:34.264Z,20.33
2023-05-11T18:19:02.921Z,20.32
2023-05-11T18:21:31.480Z,20.25
2023-05-11T18:23:59.908Z,20.15
2023-05-11T18:26:28.440Z,20.08
2023-05-11T18:28:56.825Z,20.05
2023-05-11T18:31:28.287Z,19.94
2023-05-11T18:33:57.070Z,19.92
2023-05-11T18:36:26.324Z,19.88
2023-05-11T18:38:54.826Z,19.81
2023-05-11T18:41:23.317Z,19.75
2023-05-11T18:43:52.862Z,19.69
2023-05-11T18:46:21.725Z,19.68
2023-05-11T18:48:52.961Z,19.67
2023-05-11T18:51:22.927Z,19.59
2023-05-11T18:53:52.575Z,19.51
2023-05-11T18:56:22.442Z,19.42
2023-05-11T18:58:50.972Z,19.37
2023-05-11T19:01:19.460Z,19.31
2023-05-11T19:03:47.856Z,19.29
2023-05-11T19:06:17.702Z,19.26
2023-05-11T19:08:46.105Z,19.20
2023-05-11T19:11:15.753Z,19.15
2023-05-11T19:13:44.369Z,19.04
2023-05-11T19:16:12.884Z,18.97
2023-05-11T19:18:41.335Z,18.80
2023-05-11T19:21:10.792Z,18.82
2023-05-11T19:23:40.626Z,18.72
2023-05-11T19:26:09.191Z,18.44
2023-05-11T19:28:38.575Z,18.55
2023-05-11T19:31:07.651Z,18.43
2023-05-11T19:33:36.245Z,18.33
2023-05-11T19:36:05.717Z,18.23
2023-05-11T19:38:35.449Z,18.11
2023-05-11T19:41:05.342Z,17.92
2023-05-11T19:43:34.319Z,17.83
2023-05-11T19:46:04.185Z,17.77
2023-05-11T19:48:32.783Z,17.79
2023-05-11T19:51:01.370Z,17.79
2023-05-11T19:53:29.988Z,17.72
2023-05-11T19:55:58.472Z,17.70
2023-05-11T19:58:28.293Z,17.63
2023-05-11T20:00:56.772Z,17.65
2023-05-11T20:03:27.969Z,17.65
2023-05-11T20:05:57.421Z,17.59
2023-05-11T20:08:25.814Z,17.54
2023-05-11T20:10:54.469Z,17.49
2023-05-11T20:13:23.526Z,17.48
2023-05-11T20:15:53.399Z,17.43
2023-05-11T20:18:21.881Z,17.36
2023-05-11T20:20:50.616Z,17.32
2023-05-11T20:23:19.421Z,17.24
2023-05-11T20:25:47.815Z,17.20
2023-05-11T20:28:16.264Z,17.16
2023-05-11T20:30:44.735Z,17.11
2023-05-11T20:35:46.954Z,16.97
2023-05-11T20:38:15.286Z,16.91
2023-05-11T20:40:43.733Z,16.87
2023-05-11T20:43:14.376Z,16.83
2023-05-11T20:45:43.801Z,16.75
2023-05-11T20:48:12.433Z,16.72
2023-05-11T20:50:42.375Z,16.77
2023-05-11T20:53:10.782Z,16.75
2023-05-11T20:55:39.617Z,16.72
2023-05-11T20:58:08.059Z,16.74
2023-05-11T21:00:36.688Z,16.73
2023-05-11T21:03:05.557Z,16.71
2023-05-11T21:05:34.118Z,16.66
2023-05-11T21:08:03.993Z,16.67
2023-05-11T21:10:32.748Z,16.67
2023-05-11T21:13:02.036Z,16.66
2023-05-11T21:15:30.668Z,16.57
2023-05-11T21:17:59.234Z,16.57
2023-05-11T21:20:27.651Z,16.53
2023-05-11T21:22:56.839Z,16.44
2023-05-11T21:25:26.767Z,16.40
2023-05-11T21:27:55.186Z,16.38
2023-05-11T21:30:23.610Z,16.34
2023-05-11T21:32:52.090Z,16.30
2023-05-11T21:35:20.598Z,16.30
2023-05-11T21:37:50.401Z,16.29
2023-05-11T21:40:19.127Z,16.28
2023-05-11T21:42:49.195Z,16.23
2023-05-11T21:45:19.893Z,16.20
2023-05-11T21:47:48.323Z,16.16
2023-05-11T21:50:18.331Z,15.90
2023-05-11T21:52:46.997Z,16.10
2023-05-11T21:55:15.442Z,16.05
2023-05-11T21:57:43.797Z,16.03
2023-05-11T22:00:18.715Z,16.01
2023-05-11T22:02:47.548Z,15.96
2023-05-11T22:05:16.579Z,15.94
2023-05-11T22:07:45.178Z,15.93
2023-05-11T22:10:13.789Z,15.88
2023-05-11T22:12:42.253Z,15.88
2023-05-11T22:15:12.223Z,15.86
2023-05-11T22:17:42.019Z,15.90
2023-05-11T22:20:11.237Z,15.79
2023-05-11T22:22:39.893Z,15.84
2023-05-11T22:25:09.198Z,15.82
2023-05-11T22:27:37.706Z,15.75
2023-05-11T22:30:07.641Z,15.74
2023-05-11T22:32:36.158Z,15.72
2023-05-11T22:35:07.227Z,15.71
2023-05-11T22:37:35.718Z,15.72
2023-05-11T22:40:05.395Z,15.63
2023-05-11T22:42:33.882Z,15.59
2023-05-11T22:45:02.416Z,15.47
2023-05-11T22:47:30.950Z,15.38
2023-05-11T22:49:59.341Z,15.30
2023-05-11T22:52:29.268Z,15.24
2023-05-11T22:54:59.074Z,15.19
2023-05-11T22:57:27.886Z,15.15
2023-05-11T22:59:56.440Z,15.09
2023-05-11T23:02:25.154Z,15.04
2023-05-11T23:04:54.467Z,15.01
2023-05-11T23:07:23.978Z,14.96
2023-05-11T23:09:53.825Z,14.90
2023-05-11T23:12:22.378Z,14.89
2023-05-11T23:14:52.520Z,14.91
2023-05-11T23:17:21.068Z,14.87
2023-05-11T23:19:49.633Z,14.86
2023-05-11T23:22:18.087Z,14.84
2023-05-11T23:24:46.545Z,14.81
2023-05-11T23:27:17.284Z,14.71
2023-05-11T23:29:45.770Z,14.66
2023-05-11T23:32:14.285Z,14.63
2023-05-11T23:34:42.751Z,14.55
2023-05-11T23:37:11.524Z,14.49
2023-05-11T23:39:40.037Z,14.41
2023-05-11T23:42:09.315Z,14.33
2023-05-11T23:44:39.354Z,14.22
2023-05-11T23:47:07.915Z,14.13
2023-05-11T23:49:36.402Z,14.09
2023-05-11T23:52:05.179Z,14.04
2023-05-11T23:54:33.559Z,13.93
2023-05-11T23:57:02.172Z,13.82
2023-05-11T23:59:30.601Z,13.77
